sensor_id;sensor_type;location;lat;lon;timestamp;P1;durP1;ratioP1;P2;durP2;ratioP2
1721;SDS011;858;53.190;8.596;2022-10-16T00:01:34;6.60;;;4.10;;
1721;SDS011;858;53.190;8.596;2022-10-16T00:04:01;4.53;;;3.28;;
1721;SDS011;858;53.190;8.596;2022-10-16T00:06:28;4.35;;;3.40;;
1721;SDS011;858;53.190;8.596;2022-10-16T00:08:56;5.72;;;3.53;;
1721;SDS011;858;53.190;8.596;2022-10-16T00:11:24;7.32;;;3.42;;
1721;SDS011;858;53.190;8.596;2022-10-16T00:13:51;6.00;;;3.80;;
1721;SDS011;858;53.190;8.596;2022-10-16T00:16:19;7.82;;;3.47;;
1721;SDS011;858;53.190;8.596;2022-10-16T00:18:46;6.88;;;3.85;;
1721;SDS011;858;53.190;8.596;2022-10-16T00:21:13;6.20;;;3.63;;
1721;SDS011;858;53.190;8.596;2022-10-16T00:23:40;6.15;;;3.88;;
1721;SDS011;858;53.190;8.596;2022-10-16T00:26:07;4.90;;;3.40;;
1721;SDS011;858;53.190;8.596;2022-10-16T00:28:33;5.45;;;3.10;;
1721;SDS011;858;53.190;8.596;2022-10-16T00:31:02;6.00;;;3.08;;
1721;SDS011;858;53.190;8.596;2022-10-16T00:33:30;5.03;;;3.78;;
1721;SDS011;858;53.190;8.596;2022-10-16T00:35:57;6.82;;;3.00;;
1721;SDS011;858;53.190;8.596;2022-10-16T00:38:23;7.00;;;3.20;;
1721;SDS011;858;53.190;8.596;2022-10-16T00:40:50;4.90;;;3.05;;
1721;SDS011;858;53.190;8.596;2022-10-16T00:45:57;7.30;;;3.00;;
1721;SDS011;858;53.190;8.596;2022-10-16T00:48:24;4.60;;;3.50;;
1721;SDS011;858;53.190;8.596;2022-10-16T00:50:52;5.63;;;3.22;;
1721;SDS011;858;53.190;8.596;2022-10-16T00:53:19;7.05;;;3.78;;
1721;SDS011;858;53.190;8.596;2022-10-16T00:55:46;5.90;;;3.30;;
1721;SDS011;858;53.190;8.596;2022-10-16T00:58:12;6.82;;;2.90;;
1721;SDS011;858;53.190;8.596;2022-10-16T01:00:38;5.40;;;3.20;;
1721;SDS011;858;53.190;8.596;2022-10-16T01:05:54;11.15;;;3.20;;
1721;SDS011;858;53.190;8.596;2022-10-16T01:08:25;6.10;;;2.92;;
1721;SDS011;858;53.190;8.596;2022-10-16T01:10:55;6.80;;;2.90;;
1721;SDS011;858;53.190;8.596;2022-10-16T01:13:24;5.63;;;3.10;;
1721;SDS011;858;53.190;8.596;2022-10-16T01:15:54;6.63;;;3.37;;
1721;SDS011;858;53.190;8.596;2022-10-16T01:18:23;5.47;;;2.80;;
1721;SDS011;858;53.190;8.596;2022-10-16T01:20:54;6.57;;;2.83;;
1721;SDS011;858;53.190;8.596;2022-10-16T01:23:31;4.88;;;2.67;;
1721;SDS011;858;53.190;8.596;2022-10-16T01:26:01;6.45;;;3.20;;
1721;SDS011;858;53.190;8.596;2022-10-16T01:28:36;6.35;;;3.00;;
1721;SDS011;858;53.190;8.596;2022-10-16T01:31:04;5.43;;;3.20;;
1721;SDS011;858;53.190;8.596;2022-10-16T01:33:33;5.90;;;2.83;;
1721;SDS011;858;53.190;8.596;2022-10-16T01:36:03;5.78;;;3.25;;
1721;SDS011;858;53.190;8.596;2022-10-16T01:38:34;7.70;;;3.50;;
1721;SDS011;858;53.190;8.596;2022-10-16T01:41:02;7.28;;;2.85;;
1721;SDS011;858;53.190;8.596;2022-10-16T01:43:31;4.40;;;2.80;;
1721;SDS011;858;53.190;8.596;2022-10-16T01:46:01;7.75;;;3.20;;
1721;SDS011;858;53.190;8.596;2022-10-16T01:48:27;5.90;;;3.40;;
1721;SDS011;858;53.190;8.596;2022-10-16T01:50:55;5.70;;;3.10;;
1721;SDS011;858;53.190;8.596;2022-10-16T01:53:23;4.25;;;2.90;;
1721;SDS011;858;53.190;8.596;2022-10-16T01:55:52;7.00;;;3.28;;
1721;SDS011;858;53.190;8.596;2022-10-16T01:58:19;5.07;;;3.17;;
1721;SDS011;858;53.190;8.596;2022-10-16T02:00:46;5.90;;;3.90;;
1721;SDS011;858;53.190;8.596;2022-10-16T02:03:16;5.20;;;3.30;;
1721;SDS011;858;53.190;8.596;2022-10-16T02:05:44;7.63;;;4.10;;
1721;SDS011;858;53.190;8.596;2022-10-16T02:08:12;5.80;;;3.30;;
1721;SDS011;858;53.190;8.596;2022-10-16T02:10:39;6.23;;;4.10;;
1721;SDS011;858;53.190;8.596;2022-10-16T02:13:07;8.38;;;3.80;;
1721;SDS011;858;53.190;8.596;2022-10-16T02:15:35;7.78;;;4.00;;
1721;SDS011;858;53.190;8.596;2022-10-16T02:18:01;4.93;;;3.60;;
1721;SDS011;858;53.190;8.596;2022-10-16T02:20:31;5.95;;;3.25;;
1721;SDS011;858;53.190;8.596;2022-10-16T02:22:58;6.50;;;3.50;;
1721;SDS011;858;53.190;8.596;2022-10-16T02:25:26;5.55;;;3.13;;
1721;SDS011;858;53.190;8.596;2022-10-16T02:27:55;5.18;;;3.25;;
1721;SDS011;858;53.190;8.596;2022-10-16T02:30:24;6.32;;;3.03;;
1721;SDS011;858;53.190;8.596;2022-10-16T02:32:51;7.15;;;3.20;;
1721;SDS011;858;53.190;8.596;2022-10-16T02:35:18;6.30;;;2.90;;
1721;SDS011;858;53.190;8.596;2022-10-16T02:37:47;5.03;;;3.23;;
1721;SDS011;858;53.190;8.596;2022-10-16T02:40:14;6.47;;;3.67;;
1721;SDS011;858;53.190;8.596;2022-10-16T02:42:41;5.95;;;3.10;;
1721;SDS011;858;53.190;8.596;2022-10-16T02:45:08;3.53;;;2.80;;
1721;SDS011;858;53.190;8.596;2022-10-16T02:47:35;6.80;;;2.90;;
1721;SDS011;858;53.190;8.596;2022-10-16T02:50:02;4.35;;;2.95;;
1721;SDS011;858;53.190;8.596;2022-10-16T02:52:28;7.43;;;3.40;;
1721;SDS011;858;53.190;8.596;2022-10-16T02:54:56;4.60;;;2.80;;
1721;SDS011;858;53.190;8.596;2022-10-16T02:57:23;7.97;;;3.00;;
1721;SDS011;858;53.190;8.596;2022-10-16T02:59:49;4.60;;;2.50;;
1721;SDS011;858;53.190;8.596;2022-10-16T03:02:16;4.18;;;2.58;;
1721;SDS011;858;53.190;8.596;2022-10-16T03:04:42;8.23;;;3.50;;
1721;SDS011;858;53.190;8.596;2022-10-16T03:07:08;5.28;;;2.42;;
1721;SDS011;858;53.190;8.596;2022-10-16T03:09:35;4.20;;;2.47;;
1721;SDS011;858;53.190;8.596;2022-10-16T03:12:03;5.05;;;2.58;;
1721;SDS011;858;53.190;8.596;2022-10-16T03:14:29;4.82;;;2.97;;
1721;SDS011;858;53.190;8.596;2022-10-16T03:16:55;5.70;;;2.70;;
1721;SDS011;858;53.190;8.596;2022-10-16T03:19:22;6.85;;;3.08;;
1721;SDS011;858;53.190;8.596;2022-10-16T03:21:48;6.70;;;3.30;;
1721;SDS011;858;53.190;8.596;2022-10-16T03:24:15;4.72;;;2.80;;
1721;SDS011;858;53.190;8.596;2022-10-16T03:26:41;14.25;;;4.70;;
1721;SDS011;858;53.190;8.596;2022-10-16T03:29:09;7.77;;;3.27;;
1721;SDS011;858;53.190;8.596;2022-10-16T03:31:35;4.82;;;2.92;;
1721;SDS011;858;53.190;8.596;2022-10-16T03:34:02;7.82;;;3.50;;
1721;SDS011;858;53.190;8.596;2022-10-16T03:36:28;5.45;;;3.35;;
1721;SDS011;858;53.190;8.596;2022-10-16T03:38:55;5.78;;;3.25;;
1721;SDS011;858;53.190;8.596;2022-10-16T03:41:21;4.35;;;3.10;;
1721;SDS011;858;53.190;8.596;2022-10-16T03:43:48;5.90;;;3.40;;
1721;SDS011;858;53.190;8.596;2022-10-16T03:46:15;4.70;;;3.30;;
1721;SDS011;858;53.190;8.596;2022-10-16T03:48:42;4.63;;;3.30;;
1721;SDS011;858;53.190;8.596;2022-10-16T03:51:08;5.00;;;3.65;;
1721;SDS011;858;53.190;8.596;2022-10-16T03:53:35;7.70;;;3.50;;
1721;SDS011;858;53.190;8.596;2022-10-16T03:56:01;7.68;;;3.47;;
1721;SDS011;858;53.190;8.596;2022-10-16T03:58:28;4.70;;;3.97;;
1721;SDS011;858;53.190;8.596;2022-10-16T04:00:54;6.73;;;4.30;;
1721;SDS011;858;53.190;8.596;2022-10-16T04:03:22;6.93;;;3.95;;
1721;SDS011;858;53.190;8.596;2022-10-16T04:05:48;6.05;;;4.43;;
1721;SDS011;858;53.190;8.596;2022-10-16T04:08:15;6.60;;;4.22;;
1721;SDS011;858;53.190;8.596;2022-10-16T04:10:42;8.00;;;4.45;;
1721;SDS011;858;53.190;8.596;2022-10-16T04:13:08;7.10;;;4.47;;
1721;SDS011;858;53.190;8.596;2022-10-16T04:15:35;7.50;;;4.50;;
1721;SDS011;858;53.190;8.596;2022-10-16T04:18:01;9.20;;;5.00;;
1721;SDS011;858;53.190;8.596;2022-10-16T04:20:29;6.93;;;5.68;;
1721;SDS011;858;53.190;8.596;2022-10-16T04:22:55;8.18;;;5.75;;
1721;SDS011;858;53.190;8.596;2022-10-16T04:25:22;9.90;;;5.80;;
1721;SDS011;858;53.190;8.596;2022-10-16T04:27:48;11.50;;;7.20;;
1721;SDS011;858;53.190;8.596;2022-10-16T04:30:15;9.88;;;6.60;;
1721;SDS011;858;53.190;8.596;2022-10-16T04:32:41;9.98;;;6.55;;
1721;SDS011;858;53.190;8.596;2022-10-16T04:35:08;10.87;;;7.10;;
1721;SDS011;858;53.190;8.596;2022-10-16T04:37:36;11.63;;;6.90;;
1721;SDS011;858;53.190;8.596;2022-10-16T04:40:02;10.80;;;7.13;;
1721;SDS011;858;53.190;8.596;2022-10-16T04:42:29;9.98;;;7.57;;
1721;SDS011;858;53.190;8.596;2022-10-16T04:44:55;11.35;;;7.78;;
1721;SDS011;858;53.190;8.596;2022-10-16T04:47:22;9.95;;;6.97;;
1721;SDS011;858;53.190;8.596;2022-10-16T04:49:48;13.50;;;7.78;;
1721;SDS011;858;53.190;8.596;2022-10-16T04:52:14;12.47;;;8.60;;
1721;SDS011;858;53.190;8.596;2022-10-16T04:54:42;9.63;;;7.75;;
1721;SDS011;858;53.190;8.596;2022-10-16T04:57:10;9.60;;;7.00;;
1721;SDS011;858;53.190;8.596;2022-10-16T04:59:36;10.15;;;7.80;;
1721;SDS011;858;53.190;8.596;2022-10-16T05:02:03;9.80;;;7.78;;
1721;SDS011;858;53.190;8.596;2022-10-16T05:04:29;10.70;;;7.93;;
1721;SDS011;858;53.190;8.596;2022-10-16T05:06:55;14.15;;;7.80;;
1721;SDS011;858;53.190;8.596;2022-10-16T05:09:22;12.20;;;8.30;;
1721;SDS011;858;53.190;8.596;2022-10-16T05:11:50;12.38;;;8.52;;
1721;SDS011;858;53.190;8.596;2022-10-16T05:14:16;12.23;;;8.23;;
1721;SDS011;858;53.190;8.596;2022-10-16T05:16:43;13.98;;;8.38;;
1721;SDS011;858;53.190;8.596;2022-10-16T05:19:09;11.07;;;9.10;;
1721;SDS011;858;53.190;8.596;2022-10-16T05:21:35;11.20;;;9.05;;
1721;SDS011;858;53.190;8.596;2022-10-16T05:24:02;12.25;;;8.73;;
1721;SDS011;858;53.190;8.596;2022-10-16T05:26:28;13.68;;;8.10;;
1721;SDS011;858;53.190;8.596;2022-10-16T05:28:56;14.00;;;9.30;;
1721;SDS011;858;53.190;8.596;2022-10-16T05:31:22;12.77;;;9.73;;
1721;SDS011;858;53.190;8.596;2022-10-16T05:33:49;12.40;;;8.75;;
1721;SDS011;858;53.190;8.596;2022-10-16T05:36:15;11.45;;;9.30;;
1721;SDS011;858;53.190;8.596;2022-10-16T05:38:43;14.80;;;9.87;;
1721;SDS011;858;53.190;8.596;2022-10-16T05:41:10;15.25;;;10.18;;
1721;SDS011;858;53.190;8.596;2022-10-16T05:43:36;15.52;;;10.55;;
1721;SDS011;858;53.190;8.596;2022-10-16T05:46:05;12.40;;;10.40;;
1721;SDS011;858;53.190;8.596;2022-10-16T05:48:32;13.63;;;10.27;;
1721;SDS011;858;53.190;8.596;2022-10-16T05:50:59;15.70;;;10.35;;
1721;SDS011;858;53.190;8.596;2022-10-16T05:53:26;16.38;;;11.13;;
1721;SDS011;858;53.190;8.596;2022-10-16T05:55:54;15.20;;;11.02;;
1721;SDS011;858;53.190;8.596;2022-10-16T05:58:21;16.88;;;11.80;;
1721;SDS011;858;53.190;8.596;2022-10-16T06:00:54;15.20;;;10.90;;
1721;SDS011;858;53.190;8.596;2022-10-16T06:03:22;17.83;;;12.23;;
1721;SDS011;858;53.190;8.596;2022-10-16T06:05:48;15.90;;;11.07;;
1721;SDS011;858;53.190;8.596;2022-10-16T06:08:15;16.45;;;12.40;;
1721;SDS011;858;53.190;8.596;2022-10-16T06:10:42;15.35;;;11.23;;
1721;SDS011;858;53.190;8.596;2022-10-16T06:13:08;16.75;;;12.60;;
1721;SDS011;858;53.190;8.596;2022-10-16T06:15:35;16.20;;;12.07;;
1721;SDS011;858;53.190;8.596;2022-10-16T06:18:03;15.15;;;11.52;;
1721;SDS011;858;53.190;8.596;2022-10-16T06:20:31;15.70;;;11.27;;
1721;SDS011;858;53.190;8.596;2022-10-16T06:22:58;15.55;;;11.82;;
1721;SDS011;858;53.190;8.596;2022-10-16T06:25:24;16.73;;;12.13;;
1721;SDS011;858;53.190;8.596;2022-10-16T06:27:50;24.52;;;13.00;;
1721;SDS011;858;53.190;8.596;2022-10-16T06:30:17;14.20;;;11.63;;
1721;SDS011;858;53.190;8.596;2022-10-16T06:32:43;18.23;;;12.48;;
1721;SDS011;858;53.190;8.596;2022-10-16T06:35:10;16.52;;;12.18;;
1721;SDS011;858;53.190;8.596;2022-10-16T06:37:37;17.08;;;11.98;;
1721;SDS011;858;53.190;8.596;2022-10-16T06:40:04;16.58;;;12.07;;
1721;SDS011;858;53.190;8.596;2022-10-16T06:42:31;15.55;;;11.85;;
1721;SDS011;858;53.190;8.596;2022-10-16T06:44:58;15.25;;;11.48;;
1721;SDS011;858;53.190;8.596;2022-10-16T06:47:26;14.48;;;11.93;;
1721;SDS011;858;53.190;8.596;2022-10-16T06:49:53;14.30;;;11.90;;
1721;SDS011;858;53.190;8.596;2022-10-16T06:52:19;17.98;;;11.82;;
1721;SDS011;858;53.190;8.596;2022-10-16T06:54:47;13.60;;;11.75;;
1721;SDS011;858;53.190;8.596;2022-10-16T06:57:15;14.43;;;11.75;;
1721;SDS011;858;53.190;8.596;2022-10-16T06:59:41;15.33;;;10.77;;
1721;SDS011;858;53.190;8.596;2022-10-16T07:02:08;16.80;;;11.65;;
1721;SDS011;858;53.190;8.596;2022-10-16T07:04:37;13.82;;;10.70;;
1721;SDS011;858;53.190;8.596;2022-10-16T07:07:04;15.90;;;11.43;;
1721;SDS011;858;53.190;8.596;2022-10-16T07:09:30;14.73;;;10.95;;
1721;SDS011;858;53.190;8.596;2022-10-16T07:11:58;19.50;;;12.30;;
1721;SDS011;858;53.190;8.596;2022-10-16T07:14:26;15.75;;;10.48;;
1721;SDS011;858;53.190;8.596;2022-10-16T07:16:52;16.17;;;11.40;;
1721;SDS011;858;53.190;8.596;2022-10-16T07:19:19;16.00;;;11.27;;
1721;SDS011;858;53.190;8.596;2022-10-16T07:21:45;13.50;;;10.45;;
1721;SDS011;858;53.190;8.596;2022-10-16T07:24:12;12.98;;;10.70;;
1721;SDS011;858;53.190;8.596;2022-10-16T07:26:39;14.80;;;10.20;;
1721;SDS011;858;53.190;8.596;2022-10-16T07:29:09;15.15;;;10.45;;
1721;SDS011;858;53.190;8.596;2022-10-16T07:31:38;14.77;;;10.93;;
1721;SDS011;858;53.190;8.596;2022-10-16T07:34:05;12.90;;;9.87;;
1721;SDS011;858;53.190;8.596;2022-10-16T07:36:31;12.85;;;9.70;;
1721;SDS011;858;53.190;8.596;2022-10-16T07:38:58;12.30;;;10.80;;
1721;SDS011;858;53.190;8.596;2022-10-16T07:41:24;12.88;;;10.50;;
1721;SDS011;858;53.190;8.596;2022-10-16T07:43:52;14.75;;;11.00;;
1721;SDS011;858;53.190;8.596;2022-10-16T07:46:21;11.15;;;9.50;;
1721;SDS011;858;53.190;8.596;2022-10-16T07:48:47;12.02;;;10.23;;
1721;SDS011;858;53.190;8.596;2022-10-16T07:51:14;10.73;;;9.03;;
1721;SDS011;858;53.190;8.596;2022-10-16T07:53:41;14.38;;;9.60;;
1721;SDS011;858;53.190;8.596;2022-10-16T07:56:07;11.90;;;9.40;;
1721;SDS011;858;53.190;8.596;2022-10-16T07:58:34;10.38;;;8.93;;
1721;SDS011;858;53.190;8.596;2022-10-16T08:01:03;10.00;;;8.70;;
1721;SDS011;858;53.190;8.596;2022-10-16T08:03:31;12.35;;;9.10;;
1721;SDS011;858;53.190;8.596;2022-10-16T08:05:57;14.75;;;9.18;;
1721;SDS011;858;53.190;8.596;2022-10-16T08:08:23;11.57;;;8.70;;
1721;SDS011;858;53.190;8.596;2022-10-16T08:10:50;10.85;;;9.00;;
1721;SDS011;858;53.190;8.596;2022-10-16T08:13:16;9.93;;;8.20;;
1721;SDS011;858;53.190;8.596;2022-10-16T08:15:43;11.80;;;8.50;;
1721;SDS011;858;53.190;8.596;2022-10-16T08:18:10;9.25;;;7.45;;
1721;SDS011;858;53.190;8.596;2022-10-16T08:20:38;10.00;;;7.80;;
1721;SDS011;858;53.190;8.596;2022-10-16T08:23:05;9.85;;;7.43;;
1721;SDS011;858;53.190;8.596;2022-10-16T08:25:33;10.75;;;6.90;;
1721;SDS011;858;53.190;8.596;2022-10-16T08:28:00;10.23;;;6.90;;
1721;SDS011;858;53.190;8.596;2022-10-16T08:30:27;10.77;;;6.85;;
1721;SDS011;858;53.190;8.596;2022-10-16T08:32:54;8.90;;;6.57;;
1721;SDS011;858;53.190;8.596;2022-10-16T08:35:21;7.72;;;6.15;;
1721;SDS011;858;53.190;8.596;2022-10-16T08:37:49;9.07;;;5.93;;
1721;SDS011;858;53.190;8.596;2022-10-16T08:40:16;7.93;;;5.70;;
1721;SDS011;858;53.190;8.596;2022-10-16T08:42:47;8.73;;;5.30;;
1721;SDS011;858;53.190;8.596;2022-10-16T08:45:20;8.05;;;5.30;;
1721;SDS011;858;53.190;8.596;2022-10-16T08:47:52;5.75;;;5.07;;
1721;SDS011;858;53.190;8.596;2022-10-16T08:50:23;5.00;;;4.20;;
1721;SDS011;858;53.190;8.596;2022-10-16T08:52:53;7.50;;;4.28;;
1721;SDS011;858;53.190;8.596;2022-10-16T08:55:30;5.50;;;3.90;;
1721;SDS011;858;53.190;8.596;2022-10-16T08:57:58;6.93;;;3.63;;
1721;SDS011;858;53.190;8.596;2022-10-16T09:00:26;5.20;;;3.47;;
1721;SDS011;858;53.190;8.596;2022-10-16T09:02:56;6.72;;;3.70;;
1721;SDS011;858;53.190;8.596;2022-10-16T09:08:11;4.22;;;2.58;;
1721;SDS011;858;53.190;8.596;2022-10-16T09:10:46;4.40;;;3.10;;
1721;SDS011;858;53.190;8.596;2022-10-16T09:13:20;7.80;;;2.90;;
1721;SDS011;858;53.190;8.596;2022-10-16T09:15:49;8.73;;;2.80;;
1721;SDS011;858;53.190;8.596;2022-10-16T09:18:20;6.70;;;2.92;;
1721;SDS011;858;53.190;8.596;2022-10-16T09:20:49;6.47;;;3.10;;
1721;SDS011;858;53.190;8.596;2022-10-16T09:23:18;5.95;;;2.97;;
1721;SDS011;858;53.190;8.596;2022-10-16T09:25:46;7.60;;;2.80;;
1721;SDS011;858;53.190;8.596;2022-10-16T09:28:14;6.28;;;2.75;;
1721;SDS011;858;53.190;8.596;2022-10-16T09:30:41;8.32;;;3.00;;
1721;SDS011;858;53.190;8.596;2022-10-16T09:33:07;4.67;;;2.23;;
1721;SDS011;858;53.190;8.596;2022-10-16T09:35:36;4.10;;;2.38;;
1721;SDS011;858;53.190;8.596;2022-10-16T09:38:03;6.05;;;2.40;;
1721;SDS011;858;53.190;8.596;2022-10-16T09:40:32;4.55;;;2.30;;
1721;SDS011;858;53.190;8.596;2022-10-16T09:43:01;4.22;;;2.10;;
1721;SDS011;858;53.190;8.596;2022-10-16T09:45:28;4.27;;;2.40;;
1721;SDS011;858;53.190;8.596;2022-10-16T09:47:55;3.95;;;2.10;;
1721;SDS011;858;53.190;8.596;2022-10-16T09:50:22;5.30;;;2.60;;
1721;SDS011;858;53.190;8.596;2022-10-16T09:52:50;6.07;;;2.00;;
1721;SDS011;858;53.190;8.596;2022-10-16T09:55:16;6.60;;;2.53;;
1721;SDS011;858;53.190;8.596;2022-10-16T09:57:50;4.05;;;2.40;;
1721;SDS011;858;53.190;8.596;2022-10-16T10:00:16;5.78;;;1.90;;
1721;SDS011;858;53.190;8.596;2022-10-16T10:02:44;4.13;;;1.90;;
1721;SDS011;858;53.190;8.596;2022-10-16T10:05:17;4.00;;;2.43;;
1721;SDS011;858;53.190;8.596;2022-10-16T10:07:45;3.72;;;1.90;;
1721;SDS011;858;53.190;8.596;2022-10-16T10:10:18;4.27;;;2.00;;
1721;SDS011;858;53.190;8.596;2022-10-16T10:12:46;4.63;;;2.10;;
1721;SDS011;858;53.190;8.596;2022-10-16T10:15:13;4.78;;;2.10;;
1721;SDS011;858;53.190;8.596;2022-10-16T10:17:45;5.72;;;2.28;;
1721;SDS011;858;53.190;8.596;2022-10-16T10:20:15;2.67;;;2.00;;
1721;SDS011;858;53.190;8.596;2022-10-16T10:22:42;4.53;;;2.10;;
1721;SDS011;858;53.190;8.596;2022-10-16T10:25:19;5.75;;;1.90;;
1721;SDS011;858;53.190;8.596;2022-10-16T10:27:53;5.03;;;2.38;;
1721;SDS011;858;53.190;8.596;2022-10-16T10:30:27;3.22;;;1.60;;
1721;SDS011;858;53.190;8.596;2022-10-16T10:32:59;5.63;;;2.08;;
1721;SDS011;858;53.190;8.596;2022-10-16T10:35:32;4.68;;;1.80;;
1721;SDS011;858;53.190;8.596;2022-10-16T10:38:06;3.60;;;1.65;;
1721;SDS011;858;53.190;8.596;2022-10-16T10:40:40;3.67;;;1.70;;
1721;SDS011;858;53.190;8.596;2022-10-16T10:43:14;3.42;;;1.80;;
1721;SDS011;858;53.190;8.596;2022-10-16T10:45:48;2.53;;;1.30;;
1721;SDS011;858;53.190;8.596;2022-10-16T10:48:19;3.63;;;1.90;;
1721;SDS011;858;53.190;8.596;2022-10-16T10:50:48;8.40;;;2.00;;
1721;SDS011;858;53.190;8.596;2022-10-16T10:53:21;3.03;;;1.60;;
1721;SDS011;858;53.190;8.596;2022-10-16T10:55:52;4.57;;;1.95;;
1721;SDS011;858;53.190;8.596;2022-10-16T10:58:34;4.30;;;2.00;;
1721;SDS011;858;53.190;8.596;2022-10-16T11:01:08;4.68;;;1.73;;
1721;SDS011;858;53.190;8.596;2022-10-16T11:03:41;6.55;;;1.70;;
1721;SDS011;858;53.190;8.596;2022-10-16T11:06:17;4.40;;;1.85;;
1721;SDS011;858;53.190;8.596;2022-10-16T11:08:45;5.20;;;2.17;;
1721;SDS011;858;53.190;8.596;2022-10-16T11:11:15;4.72;;;1.60;;
1721;SDS011;858;53.190;8.596;2022-10-16T11:13:44;3.58;;;2.10;;
1721;SDS011;858;53.190;8.596;2022-10-16T11:16:15;5.40;;;2.10;;
1721;SDS011;858;53.190;8.596;2022-10-16T11:18:45;4.07;;;1.70;;
1721;SDS011;858;53.190;8.596;2022-10-16T11:21:14;4.50;;;1.60;;
1721;SDS011;858;53.190;8.596;2022-10-16T11:23:42;5.83;;;1.77;;
1721;SDS011;858;53.190;8.596;2022-10-16T11:26:11;5.70;;;2.58;;
1721;SDS011;858;53.190;8.596;2022-10-16T11:28:40;4.72;;;1.80;;
1721;SDS011;858;53.190;8.596;2022-10-16T11:31:08;4.15;;;1.50;;
1721;SDS011;858;53.190;8.596;2022-10-16T11:33:39;5.50;;;1.90;;
1721;SDS011;858;53.190;8.596;2022-10-16T11:36:08;6.05;;;1.80;;
1721;SDS011;858;53.190;8.596;2022-10-16T11:38:41;7.15;;;2.50;;
1721;SDS011;858;53.190;8.596;2022-10-16T11:41:11;5.80;;;1.60;;
1721;SDS011;858;53.190;8.596;2022-10-16T11:43:41;11.75;;;2.70;;
1721;SDS011;858;53.190;8.596;2022-10-16T11:46:10;6.77;;;1.80;;
1721;SDS011;858;53.190;8.596;2022-10-16T11:48:41;5.13;;;1.52;;
1721;SDS011;858;53.190;8.596;2022-10-16T11:51:11;8.13;;;2.15;;
1721;SDS011;858;53.190;8.596;2022-10-16T11:53:42;4.53;;;1.52;;
1721;SDS011;858;53.190;8.596;2022-10-16T11:56:11;8.00;;;2.55;;
1721;SDS011;858;53.190;8.596;2022-10-16T11:58:40;7.78;;;2.00;;
1721;SDS011;858;53.190;8.596;2022-10-16T12:01:13;5.10;;;1.80;;
1721;SDS011;858;53.190;8.596;2022-10-16T12:03:44;7.53;;;2.10;;
1721;SDS011;858;53.190;8.596;2022-10-16T12:06:13;5.90;;;2.15;;
1721;SDS011;858;53.190;8.596;2022-10-16T12:08:43;4.03;;;1.77;;
1721;SDS011;858;53.190;8.596;2022-10-16T12:11:20;7.47;;;1.80;;
1721;SDS011;858;53.190;8.596;2022-10-16T12:13:49;6.15;;;2.00;;
1721;SDS011;858;53.190;8.596;2022-10-16T12:16:22;3.38;;;1.70;;
1721;SDS011;858;53.190;8.596;2022-10-16T12:19:02;4.82;;;1.42;;
1721;SDS011;858;53.190;8.596;2022-10-16T12:21:30;5.95;;;1.90;;
1721;SDS011;858;53.190;8.596;2022-10-16T12:23:58;5.40;;;1.60;;
1721;SDS011;858;53.190;8.596;2022-10-16T12:26:26;6.10;;;2.03;;
1721;SDS011;858;53.190;8.596;2022-10-16T12:28:53;5.83;;;2.00;;
1721;SDS011;858;53.190;8.596;2022-10-16T12:31:19;5.90;;;2.00;;
1721;SDS011;858;53.190;8.596;2022-10-16T12:33:55;7.70;;;2.17;;
1721;SDS011;858;53.190;8.596;2022-10-16T12:36:26;5.53;;;1.60;;
1721;SDS011;858;53.190;8.596;2022-10-16T12:38:54;7.63;;;2.05;;
1721;SDS011;858;53.190;8.596;2022-10-16T12:41:24;7.63;;;2.17;;
1721;SDS011;858;53.190;8.596;2022-10-16T12:43:51;5.60;;;1.97;;
1721;SDS011;858;53.190;8.596;2022-10-16T12:46:22;7.70;;;2.00;;
1721;SDS011;858;53.190;8.596;2022-10-16T12:48:49;6.10;;;1.92;;
1721;SDS011;858;53.190;8.596;2022-10-16T12:51:24;4.82;;;1.80;;
1721;SDS011;858;53.190;8.596;2022-10-16T12:54:00;8.23;;;2.05;;
1721;SDS011;858;53.190;8.596;2022-10-16T12:56:28;7.77;;;1.97;;
1721;SDS011;858;53.190;8.596;2022-10-16T12:59:04;4.80;;;1.80;;
1721;SDS011;858;53.190;8.596;2022-10-16T13:01:37;8.32;;;1.85;;
1721;SDS011;858;53.190;8.596;2022-10-16T13:04:15;7.82;;;1.92;;
1721;SDS011;858;53.190;8.596;2022-10-16T13:06:48;6.90;;;1.93;;
1721;SDS011;858;53.190;8.596;2022-10-16T13:09:23;5.60;;;1.60;;
1721;SDS011;858;53.190;8.596;2022-10-16T13:12:04;5.28;;;1.98;;
1721;SDS011;858;53.190;8.596;2022-10-16T13:14:46;7.43;;;1.90;;
1721;SDS011;858;53.190;8.596;2022-10-16T13:17:18;4.20;;;1.42;;
1721;SDS011;858;53.190;8.596;2022-10-16T13:19:50;6.70;;;1.60;;
1721;SDS011;858;53.190;8.596;2022-10-16T13:22:25;9.15;;;2.38;;
1721;SDS011;858;53.190;8.596;2022-10-16T13:24:56;9.05;;;2.28;;
1721;SDS011;858;53.190;8.596;2022-10-16T13:27:29;5.65;;;1.75;;
1721;SDS011;858;53.190;8.596;2022-10-16T13:30:01;5.43;;;1.85;;
1721;SDS011;858;53.190;8.596;2022-10-16T13:32:28;5.55;;;1.80;;
1721;SDS011;858;53.190;8.596;2022-10-16T13:34:55;6.70;;;1.83;;
1721;SDS011;858;53.190;8.596;2022-10-16T13:37:23;7.50;;;2.00;;
1721;SDS011;858;53.190;8.596;2022-10-16T13:39:50;3.60;;;1.55;;
1721;SDS011;858;53.190;8.596;2022-10-16T13:42:18;6.70;;;1.80;;
1721;SDS011;858;53.190;8.596;2022-10-16T13:44:49;6.78;;;1.63;;
1721;SDS011;858;53.190;8.596;2022-10-16T13:47:17;9.15;;;1.92;;
1721;SDS011;858;53.190;8.596;2022-10-16T13:49:46;5.37;;;1.87;;
1721;SDS011;858;53.190;8.596;2022-10-16T13:52:16;10.07;;;2.00;;
1721;SDS011;858;53.190;8.596;2022-10-16T13:54:45;6.77;;;2.10;;
1721;SDS011;858;53.190;8.596;2022-10-16T13:57:12;6.70;;;1.60;;
1721;SDS011;858;53.190;8.596;2022-10-16T13:59:39;5.60;;;1.63;;
1721;SDS011;858;53.190;8.596;2022-10-16T14:02:08;5.65;;;2.00;;
1721;SDS011;858;53.190;8.596;2022-10-16T14:04:41;6.50;;;1.83;;
1721;SDS011;858;53.190;8.596;2022-10-16T14:07:11;7.45;;;2.05;;
1721;SDS011;858;53.190;8.596;2022-10-16T14:09:39;5.25;;;1.70;;
1721;SDS011;858;53.190;8.596;2022-10-16T14:12:10;4.45;;;1.65;;
1721;SDS011;858;53.190;8.596;2022-10-16T14:14:40;6.57;;;1.90;;
1721;SDS011;858;53.190;8.596;2022-10-16T14:17:12;5.40;;;2.10;;
1721;SDS011;858;53.190;8.596;2022-10-16T14:19:39;6.37;;;1.67;;
1721;SDS011;858;53.190;8.596;2022-10-16T14:22:11;6.38;;;1.83;;
1721;SDS011;858;53.190;8.596;2022-10-16T14:24:45;4.97;;;2.23;;
1721;SDS011;858;53.190;8.596;2022-10-16T14:27:23;10.20;;;2.58;;
1721;SDS011;858;53.190;8.596;2022-10-16T14:30:01;7.85;;;1.95;;
1721;SDS011;858;53.190;8.596;2022-10-16T14:32:30;6.10;;;2.08;;
1721;SDS011;858;53.190;8.596;2022-10-16T14:34:56;7.80;;;2.08;;
1721;SDS011;858;53.190;8.596;2022-10-16T14:37:23;6.07;;;1.90;;
1721;SDS011;858;53.190;8.596;2022-10-16T14:39:50;7.22;;;2.20;;
1721;SDS011;858;53.190;8.596;2022-10-16T14:42:17;7.07;;;2.40;;
1721;SDS011;858;53.190;8.596;2022-10-16T14:44:46;5.90;;;2.00;;
1721;SDS011;858;53.190;8.596;2022-10-16T14:47:13;4.47;;;2.00;;
1721;SDS011;858;53.190;8.596;2022-10-16T14:49:41;8.57;;;1.90;;
1721;SDS011;858;53.190;8.596;2022-10-16T14:52:09;7.95;;;2.50;;
1721;SDS011;858;53.190;8.596;2022-10-16T14:54:36;5.90;;;1.70;;
1721;SDS011;858;53.190;8.596;2022-10-16T14:57:02;7.28;;;2.30;;
1721;SDS011;858;53.190;8.596;2022-10-16T14:59:30;6.82;;;1.92;;
1721;SDS011;858;53.190;8.596;2022-10-16T15:01:58;6.73;;;2.03;;
1721;SDS011;858;53.190;8.596;2022-10-16T15:04:25;6.37;;;2.00;;
1721;SDS011;858;53.190;8.596;2022-10-16T15:06:51;8.57;;;2.40;;
1721;SDS011;858;53.190;8.596;2022-10-16T15:09:18;7.07;;;2.22;;
1721;SDS011;858;53.190;8.596;2022-10-16T15:11:44;5.90;;;2.10;;
1721;SDS011;858;53.190;8.596;2022-10-16T15:14:11;7.05;;;2.30;;
1721;SDS011;858;53.190;8.596;2022-10-16T15:16:38;4.53;;;2.10;;
1721;SDS011;858;53.190;8.596;2022-10-16T15:19:06;8.98;;;2.60;;
1721;SDS011;858;53.190;8.596;2022-10-16T15:21:33;9.38;;;2.00;;
1721;SDS011;858;53.190;8.596;2022-10-16T15:23:59;10.23;;;2.60;;
1721;SDS011;858;53.190;8.596;2022-10-16T15:26:26;5.20;;;2.60;;
1721;SDS011;858;53.190;8.596;2022-10-16T15:28:53;6.40;;;2.67;;
1721;SDS011;858;53.190;8.596;2022-10-16T15:31:20;8.10;;;2.83;;
1721;SDS011;858;53.190;8.596;2022-10-16T15:33:49;6.90;;;2.25;;
1721;SDS011;858;53.190;8.596;2022-10-16T15:36:25;7.93;;;2.50;;
1721;SDS011;858;53.190;8.596;2022-10-16T15:38:52;8.20;;;2.80;;
1721;SDS011;858;53.190;8.596;2022-10-16T15:41:19;6.47;;;2.60;;